sensor_id;sensor_type;location;lat;lon;timestamp;temperature;humidity
20380;DHT22;10349;48.666;8.948;2023-07-16T00:00:50;19.60;99.90
20380;DHT22;10349;48.666;8.948;2023-07-16T00:03:16;19.60;99.90
20380;DHT22;10349;48.666;8.948;2023-07-16T00:05:41;19.40;99.90
20380;DHT22;10349;48.666;8.948;2023-07-16T00:08:07;19.40;99.90
20380;DHT22;10349;48.666;8.948;2023-07-16T00:10:35;19.30;99.90
20380;DHT22;10349;48.666;8.948;2023-07-16T00:13:01;19.30;99.90
20380;DHT22;10349;48.666;8.948;2023-07-16T00:15:28;19.40;99.90
20380;DHT22;10349;48.666;8.948;2023-07-16T00:17:54;19.40;99.90
20380;DHT22;10349;48.666;8.948;2023-07-16T00:20:20;19.30;99.90
20380;DHT22;10349;48.666;8.948;2023-07-16T00:22:46;19.30;99.90
20380;DHT22;10349;48.666;8.948;2023-07-16T00:25:12;19.20;99.90
20380;DHT22;10349;48.666;8.948;2023-07-16T00:27:38;19.20;99.90
20380;DHT22;10349;48.666;8.948;2023-07-16T00:30:04;19.30;99.90
20380;DHT22;10349;48.666;8.948;2023-07-16T00:32:30;19.20;99.90
20380;DHT22;10349;48.666;8.948;2023-07-16T00:34:55;19.20;99.90
20380;DHT22;10349;48.666;8.948;2023-07-16T00:37:21;19.10;99.90
20380;DHT22;10349;48.666;8.948;2023-07-16T00:39:48;19.00;99.90
20380;DHT22;10349;48.666;8.948;2023-07-16T00:42:13;18.90;99.90
20380;DHT22;10349;48.666;8.948;2023-07-16T00:44:39;18.70;99.90
20380;DHT22;10349;48.666;8.948;2023-07-16T00:47:05;18.70;99.90
20380;DHT22;10349;48.666;8.948;2023-07-16T00:49:31;18.70;99.90
20380;DHT22;10349;48.666;8.948;2023-07-16T00:51:58;18.60;99.90
20380;DHT22;10349;48.666;8.948;2023-07-16T00:54:24;18.60;99.90
20380;DHT22;10349;48.666;8.948;2023-07-16T00:56:51;18.50;99.90
20380;DHT22;10349;48.666;8.948;2023-07-16T00:59:17;18.50;99.90
20380;DHT22;10349;48.666;8.948;2023-07-16T01:01:42;18.50;99.90
20380;DHT22;10349;48.666;8.948;2023-07-16T01:04:08;18.40;99.90
20380;DHT22;10349;48.666;8.948;2023-07-16T01:09:04;18.20;99.90
20380;DHT22;10349;48.666;8.948;2023-07-16T01:11:33;18.20;99.90
20380;DHT22;10349;48.666;8.948;2023-07-16T01:14:01;18.10;99.90
20380;DHT22;10349;48.666;8.948;2023-07-16T01:16:27;18.10;99.90
20380;DHT22;10349;48.666;8.948;2023-07-16T01:18:53;18.00;99.90
20380;DHT22;10349;48.666;8.948;2023-07-16T01:21:20;18.00;99.90
20380;DHT22;10349;48.666;8.948;2023-07-16T01:27:10;17.90;99.90
20380;DHT22;10349;48.666;8.948;2023-07-16T01:29:49;17.90;99.90
20380;DHT22;10349;48.666;8.948;2023-07-16T01:32:15;17.80;99.90
20380;DHT22;10349;48.666;8.948;2023-07-16T01:34:42;17.70;99.90
20380;DHT22;10349;48.666;8.948;2023-07-16T01:37:09;17.80;99.90
20380;DHT22;10349;48.666;8.948;2023-07-16T01:39:35;17.70;99.90
20380;DHT22;10349;48.666;8.948;2023-07-16T01:42:02;17.70;99.90
20380;DHT22;10349;48.666;8.948;2023-07-16T01:44:31;17.70;99.90
20380;DHT22;10349;48.666;8.948;2023-07-16T01:47:13;17.70;99.90
20380;DHT22;10349;48.666;8.948;2023-07-16T01:49:40;17.70;99.90
20380;DHT22;10349;48.666;8.948;2023-07-16T01:52:07;17.80;99.90
20380;DHT22;10349;48.666;8.948;2023-07-16T01:54:35;17.60;99.90
20380;DHT22;10349;48.666;8.948;2023-07-16T01:57:01;17.60;99.90
20380;DHT22;10349;48.666;8.948;2023-07-16T01:59:27;17.70;99.90
20380;DHT22;10349;48.666;8.948;2023-07-16T02:01:55;17.60;99.90
20380;DHT22;10349;48.666;8.948;2023-07-16T02:04:21;17.70;99.90
20380;DHT22;10349;48.666;8.948;2023-07-16T02:06:47;17.70;99.90
20380;DHT22;10349;48.666;8.948;2023-07-16T02:09:19;17.70;99.90
20380;DHT22;10349;48.666;8.948;2023-07-16T02:11:45;17.60;99.90
20380;DHT22;10349;48.666;8.948;2023-07-16T02:14:11;17.70;99.90
20380;DHT22;10349;48.666;8.948;2023-07-16T02:16:36;17.60;99.90
20380;DHT22;10349;48.666;8.948;2023-07-16T02:19:02;17.70;99.90
20380;DHT22;10349;48.666;8.948;2023-07-16T02:21:28;17.50;99.90
20380;DHT22;10349;48.666;8.948;2023-07-16T02:23:53;17.60;99.90
20380;DHT22;10349;48.666;8.948;2023-07-16T02:26:19;17.50;99.90
20380;DHT22;10349;48.666;8.948;2023-07-16T02:28:44;17.60;99.90
20380;DHT22;10349;48.666;8.948;2023-07-16T02:31:10;17.50;99.90
20380;DHT22;10349;48.666;8.948;2023-07-16T02:33:36;17.50;99.90
20380;DHT22;10349;48.666;8.948;2023-07-16T02:36:01;17.50;99.90
20380;DHT22;10349;48.666;8.948;2023-07-16T02:38:27;17.50;99.90
20380;DHT22;10349;48.666;8.948;2023-07-16T02:40:54;17.50;99.90
20380;DHT22;10349;48.666;8.948;2023-07-16T02:43:19;17.40;99.90
20380;DHT22;10349;48.666;8.948;2023-07-16T02:45:45;17.40;99.90
20380;DHT22;10349;48.666;8.948;2023-07-16T02:48:11;17.30;99.90
20380;DHT22;10349;48.666;8.948;2023-07-16T02:50:37;17.30;99.90
20380;DHT22;10349;48.666;8.948;2023-07-16T02:53:07;17.20;99.90
20380;DHT22;10349;48.666;8.948;2023-07-16T02:55:34;17.20;99.90
20380;DHT22;10349;48.666;8.948;2023-07-16T02:57:59;17.20;99.90
20380;DHT22;10349;48.666;8.948;2023-07-16T03:00:30;17.10;99.90
20380;DHT22;10349;48.666;8.948;2023-07-16T03:02:55;17.10;99.90
20380;DHT22;10349;48.666;8.948;2023-07-16T03:05:21;17.00;99.90
20380;DHT22;10349;48.666;8.948;2023-07-16T03:07:47;17.00;99.90
20380;DHT22;10349;48.666;8.948;2023-07-16T03:10:12;17.00;99.90
20380;DHT22;10349;48.666;8.948;2023-07-16T03:12:41;17.00;99.90
20380;DHT22;10349;48.666;8.948;2023-07-16T03:15:07;17.10;99.90
20380;DHT22;10349;48.666;8.948;2023-07-16T03:17:32;17.00;99.90
20380;DHT22;10349;48.666;8.948;2023-07-16T03:19:58;16.90;99.90
20380;DHT22;10349;48.666;8.948;2023-07-16T03:22:24;17.00;99.90
20380;DHT22;10349;48.666;8.948;2023-07-16T03:24:49;17.00;99.90
20380;DHT22;10349;48.666;8.948;2023-07-16T03:27:15;17.00;99.90
20380;DHT22;10349;48.666;8.948;2023-07-16T03:29:42;17.00;99.90
20380;DHT22;10349;48.666;8.948;2023-07-16T03:32:10;17.00;99.90
20380;DHT22;10349;48.666;8.948;2023-07-16T03:34:36;16.90;99.90
20380;DHT22;10349;48.666;8.948;2023-07-16T03:37:02;16.90;99.90
20380;DHT22;10349;48.666;8.948;2023-07-16T03:39:30;16.90;99.90
20380;DHT22;10349;48.666;8.948;2023-07-16T03:41:56;16.90;99.90
20380;DHT22;10349;48.666;8.948;2023-07-16T03:44:22;16.90;99.90
20380;DHT22;10349;48.666;8.948;2023-07-16T03:46:47;16.90;99.90
20380;DHT22;10349;48.666;8.948;2023-07-16T03:49:13;17.00;99.90
20380;DHT22;10349;48.666;8.948;2023-07-16T03:51:38;17.00;99.90
20380;DHT22;10349;48.666;8.948;2023-07-16T03:54:04;17.00;99.90
20380;DHT22;10349;48.666;8.948;2023-07-16T03:56:32;17.00;99.90
20380;DHT22;10349;48.666;8.948;2023-07-16T03:58:57;17.00;99.90
20380;DHT22;10349;48.666;8.948;2023-07-16T04:01:24;17.00;99.90
20380;DHT22;10349;48.666;8.948;2023-07-16T04:03:49;17.10;99.90
20380;DHT22;10349;48.666;8.948;2023-07-16T04:06:15;17.10;99.90
20380;DHT22;10349;48.666;8.948;2023-07-16T04:08:41;17.10;99.90
20380;DHT22;10349;48.666;8.948;2023-07-16T04:11:06;17.10;99.90
20380;DHT22;10349;48.666;8.948;2023-07-16T04:13:32;17.20;99.90
20380;DHT22;10349;48.666;8.948;2023-07-16T04:15:58;17.10;99.90
20380;DHT22;10349;48.666;8.948;2023-07-16T04:18:24;17.20;99.90
20380;DHT22;10349;48.666;8.948;2023-07-16T04:20:51;17.20;99.90
20380;DHT22;10349;48.666;8.948;2023-07-16T04:23:16;17.20;99.90
20380;DHT22;10349;48.666;8.948;2023-07-16T04:25:43;17.10;99.90
20380;DHT22;10349;48.666;8.948;2023-07-16T04:28:10;17.00;99.90
20380;DHT22;10349;48.666;8.948;2023-07-16T04:30:35;16.90;99.90
20380;DHT22;10349;48.666;8.948;2023-07-16T04:33:03;16.80;99.90
20380;DHT22;10349;48.666;8.948;2023-07-16T04:35:29;16.80;99.90
20380;DHT22;10349;48.666;8.948;2023-07-16T04:37:54;16.80;99.90
20380;DHT22;10349;48.666;8.948;2023-07-16T04:40:20;16.80;99.90
20380;DHT22;10349;48.666;8.948;2023-07-16T04:42:45;16.70;99.90
20380;DHT22;10349;48.666;8.948;2023-07-16T04:45:11;16.70;99.90
20380;DHT22;10349;48.666;8.948;2023-07-16T04:47:37;16.80;99.90
20380;DHT22;10349;48.666;8.948;2023-07-16T04:50:03;16.70;99.90
20380;DHT22;10349;48.666;8.948;2023-07-16T04:52:28;16.70;99.90
20380;DHT22;10349;48.666;8.948;2023-07-16T04:54:54;16.80;99.90
20380;DHT22;10349;48.666;8.948;2023-07-16T04:57:20;16.80;99.90
20380;DHT22;10349;48.666;8.948;2023-07-16T04:59:46;16.80;99.90
20380;DHT22;10349;48.666;8.948;2023-07-16T05:02:12;16.90;99.90
20380;DHT22;10349;48.666;8.948;2023-07-16T05:04:37;16.90;99.90
20380;DHT22;10349;48.666;8.948;2023-07-16T05:07:04;16.80;99.90
20380;DHT22;10349;48.666;8.948;2023-07-16T05:09:29;16.80;99.90
20380;DHT22;10349;48.666;8.948;2023-07-16T05:11:55;16.90;99.90
20380;DHT22;10349;48.666;8.948;2023-07-16T05:14:21;16.90;99.90
20380;DHT22;10349;48.666;8.948;2023-07-16T05:16:46;16.80;99.90
20380;DHT22;10349;48.666;8.948;2023-07-16T05:19:12;16.90;99.90
20380;DHT22;10349;48.666;8.948;2023-07-16T05:21:38;16.80;99.90
20380;DHT22;10349;48.666;8.948;2023-07-16T05:24:04;16.70;99.90
20380;DHT22;10349;48.666;8.948;2023-07-16T05:26:30;16.70;99.90
20380;DHT22;10349;48.666;8.948;2023-07-16T05:28:56;16.60;99.90
20380;DHT22;10349;48.666;8.948;2023-07-16T05:31:23;16.70;99.90
20380;DHT22;10349;48.666;8.948;2023-07-16T05:33:48;16.60;99.90
20380;DHT22;10349;48.666;8.948;2023-07-16T05:36:14;16.70;99.90
20380;DHT22;10349;48.666;8.948;2023-07-16T05:38:40;16.80;99.90
20380;DHT22;10349;48.666;8.948;2023-07-16T05:41:05;16.80;99.90
20380;DHT22;10349;48.666;8.948;2023-07-16T05:43:31;16.80;99.90
20380;DHT22;10349;48.666;8.948;2023-07-16T05:45:58;16.80;99.90
20380;DHT22;10349;48.666;8.948;2023-07-16T05:48:24;16.80;99.90
20380;DHT22;10349;48.666;8.948;2023-07-16T05:50:50;16.80;99.90
20380;DHT22;10349;48.666;8.948;2023-07-16T05:53:15;16.80;99.90
20380;DHT22;10349;48.666;8.948;2023-07-16T05:55:41;16.80;99.90
20380;DHT22;10349;48.666;8.948;2023-07-16T05:58:07;16.80;99.90
20380;DHT22;10349;48.666;8.948;2023-07-16T06:00:33;16.80;99.90
20380;DHT22;10349;48.666;8.948;2023-07-16T06:02:58;16.70;99.90
20380;DHT22;10349;48.666;8.948;2023-07-16T06:05:24;16.80;99.90
20380;DHT22;10349;48.666;8.948;2023-07-16T06:07:51;16.80;99.90
20380;DHT22;10349;48.666;8.948;2023-07-16T06:10:17;16.80;99.90
20380;DHT22;10349;48.666;8.948;2023-07-16T06:12:43;16.80;99.90
20380;DHT22;10349;48.666;8.948;2023-07-16T06:15:09;16.80;99.90
20380;DHT22;10349;48.666;8.948;2023-07-16T06:17:35;16.80;99.90
20380;DHT22;10349;48.666;8.948;2023-07-16T06:20:02;16.80;99.90
20380;DHT22;10349;48.666;8.948;2023-07-16T06:22:27;16.90;99.90
20380;DHT22;10349;48.666;8.948;2023-07-16T06:24:53;16.90;99.90
20380;DHT22;10349;48.666;8.948;2023-07-16T06:27:19;16.90;99.90
20380;DHT22;10349;48.666;8.948;2023-07-16T06:29:44;16.80;99.90
20380;DHT22;10349;48.666;8.948;2023-07-16T06:32:10;16.80;99.90
20380;DHT22;10349;48.666;8.948;2023-07-16T06:34:36;16.80;99.90
20380;DHT22;10349;48.666;8.948;2023-07-16T06:37:01;16.90;99.90
20380;DHT22;10349;48.666;8.948;2023-07-16T06:39:27;16.90;99.90
20380;DHT22;10349;48.666;8.948;2023-07-16T06:41:53;17.00;99.90
20380;DHT22;10349;48.666;8.948;2023-07-16T06:44:22;17.10;99.90
20380;DHT22;10349;48.666;8.948;2023-07-16T06:46:48;17.10;99.90
20380;DHT22;10349;48.666;8.948;2023-07-16T06:49:13;17.10;99.90
20380;DHT22;10349;48.666;8.948;2023-07-16T06:51:39;17.20;99.90
20380;DHT22;10349;48.666;8.948;2023-07-16T06:54:04;17.30;99.90
20380;DHT22;10349;48.666;8.948;2023-07-16T06:56:30;17.30;99.90
20380;DHT22;10349;48.666;8.948;2023-07-16T06:58:56;17.30;99.90
20380;DHT22;10349;48.666;8.948;2023-07-16T07:01:21;17.40;99.90
20380;DHT22;10349;48.666;8.948;2023-07-16T07:03:47;17.50;99.90
20380;DHT22;10349;48.666;8.948;2023-07-16T07:06:13;17.60;99.90
20380;DHT22;10349;48.666;8.948;2023-07-16T07:08:38;17.80;99.90
20380;DHT22;10349;48.666;8.948;2023-07-16T07:11:04;17.90;99.90
20380;DHT22;10349;48.666;8.948;2023-07-16T07:13:30;17.90;99.90
20380;DHT22;10349;48.666;8.948;2023-07-16T07:15:56;18.00;99.90
20380;DHT22;10349;48.666;8.948;2023-07-16T07:18:22;18.20;99.90
20380;DHT22;10349;48.666;8.948;2023-07-16T07:20:47;18.40;99.90
20380;DHT22;10349;48.666;8.948;2023-07-16T07:23:15;18.60;99.90
20380;DHT22;10349;48.666;8.948;2023-07-16T07:25:41;18.70;99.90
20380;DHT22;10349;48.666;8.948;2023-07-16T07:28:07;18.60;99.90
20380;DHT22;10349;48.666;8.948;2023-07-16T07:30:33;18.70;99.90
20380;DHT22;10349;48.666;8.948;2023-07-16T07:32:59;18.90;99.90
20380;DHT22;10349;48.666;8.948;2023-07-16T07:35:24;19.00;99.90
20380;DHT22;10349;48.666;8.948;2023-07-16T07:37:50;19.10;99.90
20380;DHT22;10349;48.666;8.948;2023-07-16T07:40:16;19.00;99.90
20380;DHT22;10349;48.666;8.948;2023-07-16T07:42:41;19.00;99.90
20380;DHT22;10349;48.666;8.948;2023-07-16T07:45:07;19.10;99.90
20380;DHT22;10349;48.666;8.948;2023-07-16T07:47:33;19.20;99.90
20380;DHT22;10349;48.666;8.948;2023-07-16T07:49:58;19.30;99.90
20380;DHT22;10349;48.666;8.948;2023-07-16T07:52:26;19.40;99.90
20380;DHT22;10349;48.666;8.948;2023-07-16T07:54:52;19.50;99.90
20380;DHT22;10349;48.666;8.948;2023-07-16T07:57:19;19.40;99.90
20380;DHT22;10349;48.666;8.948;2023-07-16T07:59:45;19.30;99.90
20380;DHT22;10349;48.666;8.948;2023-07-16T08:02:10;19.20;99.90
20380;DHT22;10349;48.666;8.948;2023-07-16T08:04:37;19.20;99.90
20380;DHT22;10349;48.666;8.948;2023-07-16T08:07:03;19.10;99.90
20380;DHT22;10349;48.666;8.948;2023-07-16T08:09:29;19.10;99.90
20380;DHT22;10349;48.666;8.948;2023-07-16T08:11:55;19.10;99.90
20380;DHT22;10349;48.666;8.948;2023-07-16T08:14:20;19.30;99.90
20380;DHT22;10349;48.666;8.948;2023-07-16T08:16:46;19.30;99.90
20380;DHT22;10349;48.666;8.948;2023-07-16T08:19:12;19.40;99.90
20380;DHT22;10349;48.666;8.948;2023-07-16T08:21:37;19.70;99.90
20380;DHT22;10349;48.666;8.948;2023-07-16T08:24:05;19.90;99.90
20380;DHT22;10349;48.666;8.948;2023-07-16T08:26:31;20.00;99.90
20380;DHT22;10349;48.666;8.948;2023-07-16T08:28:56;20.00;99.90
20380;DHT22;10349;48.666;8.948;2023-07-16T08:31:22;20.10;99.90
20380;DHT22;10349;48.666;8.948;2023-07-16T08:33:47;20.20;99.90
20380;DHT22;10349;48.666;8.948;2023-07-16T08:36:13;20.20;99.90
20380;DHT22;10349;48.666;8.948;2023-07-16T08:38:39;20.10;99.90
20380;DHT22;10349;48.666;8.948;2023-07-16T08:41:04;20.00;99.90
20380;DHT22;10349;48.666;8.948;2023-07-16T08:43:30;20.10;99.90
20380;DHT22;10349;48.666;8.948;2023-07-16T08:45:58;19.90;99.90
20380;DHT22;10349;48.666;8.948;2023-07-16T08:48:24;20.00;99.90
20380;DHT22;10349;48.666;8.948;2023-07-16T08:50:50;20.10;99.90
20380;DHT22;10349;48.666;8.948;2023-07-16T08:53:16;20.20;99.90
20380;DHT22;10349;48.666;8.948;2023-07-16T08:55:45;20.40;99.90
20380;DHT22;10349;48.666;8.948;2023-07-16T08:58:14;20.40;99.90
20380;DHT22;10349;48.666;8.948;2023-07-16T09:00:44;20.40;99.90
20380;DHT22;10349;48.666;8.948;2023-07-16T09:03:13;20.30;99.90
20380;DHT22;10349;48.666;8.948;2023-07-16T09:05:39;20.40;99.90
20380;DHT22;10349;48.666;8.948;2023-07-16T09:08:06;20.60;99.90
20380;DHT22;10349;48.666;8.948;2023-07-16T09:10:32;20.60;99.90
20380;DHT22;10349;48.666;8.948;2023-07-16T09:12:58;20.50;99.90
20380;DHT22;10349;48.666;8.948;2023-07-16T09:15:25;20.70;99.90
20380;DHT22;10349;48.666;8.948;2023-07-16T09:17:54;20.80;99.90
20380;DHT22;10349;48.666;8.948;2023-07-16T09:20:20;21.00;99.90
20380;DHT22;10349;48.666;8.948;2023-07-16T09:22:49;20.90;99.90
20380;DHT22;10349;48.666;8.948;2023-07-16T09:25:14;20.80;99.90
20380;DHT22;10349;48.666;8.948;2023-07-16T09:27:40;20.90;99.90
20380;DHT22;10349;48.666;8.948;2023-07-16T09:30:06;20.70;99.90
20380;DHT22;10349;48.666;8.948;2023-07-16T09:32:36;20.80;99.90
20380;DHT22;10349;48.666;8.948;2023-07-16T09:35:11;20.60;99.90
20380;DHT22;10349;48.666;8.948;2023-07-16T09:37:38;20.70;99.90
20380;DHT22;10349;48.666;8.948;2023-07-16T09:40:08;20.70;99.90
20380;DHT22;10349;48.666;8.948;2023-07-16T09:42:41;20.50;99.90
20380;DHT22;10349;48.666;8.948;2023-07-16T09:45:08;20.50;99.90
20380;DHT22;10349;48.666;8.948;2023-07-16T09:47:37;20.60;99.90
20380;DHT22;10349;48.666;8.948;2023-07-16T09:50:03;20.70;99.90
20380;DHT22;10349;48.666;8.948;2023-07-16T09:52:32;20.80;99.90
20380;DHT22;10349;48.666;8.948;2023-07-16T09:55:02;20.90;99.90
20380;DHT22;10349;48.666;8.948;2023-07-16T09:57:32;21.00;99.90
20380;DHT22;10349;48.666;8.948;2023-07-16T10:00:02;21.10;99.90
20380;DHT22;10349;48.666;8.948;2023-07-16T10:02:38;21.30;99.90
20380;DHT22;10349;48.666;8.948;2023-07-16T10:05:28;21.50;99.90
20380;DHT22;10349;48.666;8.948;2023-07-16T10:07:56;21.70;99.90
20380;DHT22;10349;48.666;8.948;2023-07-16T10:10:27;21.80;99.90
20380;DHT22;10349;48.666;8.948;2023-07-16T10:13:03;22.10;99.90
20380;DHT22;10349;48.666;8.948;2023-07-16T10:15:29;22.30;99.90
20380;DHT22;10349;48.666;8.948;2023-07-16T10:17:55;22.50;99.90
20380;DHT22;10349;48.666;8.948;2023-07-16T10:20:35;22.70;99.90
20380;DHT22;10349;48.666;8.948;2023-07-16T10:23:12;22.90;99.90
20380;DHT22;10349;48.666;8.948;2023-07-16T10:25:38;22.80;99.90
20380;DHT22;10349;48.666;8.948;2023-07-16T10:28:04;22.80;99.90
20380;DHT22;10349;48.666;8.948;2023-07-16T10:30:30;22.90;99.90
20380;DHT22;10349;48.666;8.948;2023-07-16T10:32:56;22.90;99.90
20380;DHT22;10349;48.666;8.948;2023-07-16T10:35:22;22.80;99.90
20380;DHT22;10349;48.666;8.948;2023-07-16T10:37:48;22.90;99.90
20380;DHT22;10349;48.666;8.948;2023-07-16T10:40:14;23.10;99.90
20380;DHT22;10349;48.666;8.948;2023-07-16T10:42:43;23.10;99.90
20380;DHT22;10349;48.666;8.948;2023-07-16T10:45:10;23.10;99.90
20380;DHT22;10349;48.666;8.948;2023-07-16T10:47:37;22.90;99.90
20380;DHT22;10349;48.666;8.948;2023-07-16T10:50:05;22.90;99.90
20380;DHT22;10349;48.666;8.948;2023-07-16T10:52:31;22.80;99.90
20380;DHT22;10349;48.666;8.948;2023-07-16T10:54:57;22.80;99.90
20380;DHT22;10349;48.666;8.948;2023-07-16T10:57:27;22.70;99.90
20380;DHT22;10349;48.666;8.948;2023-07-16T10:59:54;22.80;99.90
20380;DHT22;10349;48.666;8.948;2023-07-16T11:02:21;22.90;99.90
20380;DHT22;10349;48.666;8.948;2023-07-16T11:04:48;22.80;99.90
20380;DHT22;10349;48.666;8.948;2023-07-16T11:07:14;22.80;99.90
20380;DHT22;10349;48.666;8.948;2023-07-16T11:09:45;22.90;99.90
20380;DHT22;10349;48.666;8.948;2023-07-16T11:12:15;23.10;99.90
20380;DHT22;10349;48.666;8.948;2023-07-16T11:14:59;23.10;99.90
20380;DHT22;10349;48.666;8.948;2023-07-16T11:17:25;22.80;99.90
20380;DHT22;10349;48.666;8.948;2023-07-16T11:19:52;22.70;99.90
20380;DHT22;10349;48.666;8.948;2023-07-16T11:22:18;22.60;99.90
20380;DHT22;10349;48.666;8.948;2023-07-16T11:24:46;22.60;99.90
20380;DHT22;10349;48.666;8.948;2023-07-16T11:27:26;22.70;99.90
20380;DHT22;10349;48.666;8.948;2023-07-16T11:29:54;22.70;99.90
20380;DHT22;10349;48.666;8.948;2023-07-16T11:32:43;22.80;99.90
20380;DHT22;10349;48.666;8.948;2023-07-16T11:35:16;23.10;99.90
20380;DHT22;10349;48.666;8.948;2023-07-16T11:37:44;23.20;99.90
20380;DHT22;10349;48.666;8.948;2023-07-16T11:40:14;23.40;99.90
20380;DHT22;10349;48.666;8.948;2023-07-16T11:42:41;23.50;99.90
20380;DHT22;10349;48.666;8.948;2023-07-16T11:45:24;23.60;99.90
20380;DHT22;10349;48.666;8.948;2023-07-16T11:47:52;23.80;99.90
20380;DHT22;10349;48.666;8.948;2023-07-16T11:50:18;24.00;99.90
20380;DHT22;10349;48.666;8.948;2023-07-16T11:52:55;24.10;99.90
20380;DHT22;10349;48.666;8.948;2023-07-16T11:55:21;24.30;99.90
20380;DHT22;10349;48.666;8.948;2023-07-16T11:57:46;24.30;99.90
20380;DHT22;10349;48.666;8.948;2023-07-16T12:00:12;24.00;99.90
20380;DHT22;10349;48.666;8.948;2023-07-16T12:02:38;24.00;99.90
20380;DHT22;10349;48.666;8.948;2023-07-16T12:05:04;24.20;99.90
20380;DHT22;10349;48.666;8.948;2023-07-16T12:07:37;24.40;99.90
20380;DHT22;10349;48.666;8.948;2023-07-16T12:10:04;24.60;99.90
20380;DHT22;10349;48.666;8.948;2023-07-16T12:12:31;24.80;99.90
20380;DHT22;10349;48.666;8.948;2023-07-16T12:14:57;24.80;99.90
20380;DHT22;10349;48.666;8.948;2023-07-16T12:17:23;24.50;99.90
20380;DHT22;10349;48.666;8.948;2023-07-16T12:19:49;24.50;99.90
20380;DHT22;10349;48.666;8.948;2023-07-16T12:22:17;24.50;99.90
20380;DHT22;10349;48.666;8.948;2023-07-16T12:24:44;24.70;99.90
20380;DHT22;10349;48.666;8.948;2023-07-16T12:27:10;24.70;99.90
20380;DHT22;10349;48.666;8.948;2023-07-16T12:29:35;24.60;99.90
20380;DHT22;10349;48.666;8.948;2023-07-16T12:32:01;24.60;99.90
20380;DHT22;10349;48.666;8.948;2023-07-16T12:34:27;24.70;99.90
20380;DHT22;10349;48.666;8.948;2023-07-16T12:36:52;24.90;99.90
20380;DHT22;10349;48.666;8.948;2023-07-16T12:39:19;25.00;99.90
20380;DHT22;10349;48.666;8.948;2023-07-16T12:41:45;24.80;99.90
20380;DHT22;10349;48.666;8.948;2023-07-16T12:44:12;24.90;99.90
20380;DHT22;10349;48.666;8.948;2023-07-16T12:46:37;24.90;99.90
20380;DHT22;10349;48.666;8.948;2023-07-16T12:49:03;24.90;99.90
20380;DHT22;10349;48.666;8.948;2023-07-16T12:51:28;25.00;99.90
20380;DHT22;10349;48.666;8.948;2023-07-16T12:53:54;25.00;99.90
20380;DHT22;10349;48.666;8.948;2023-07-16T12:56:20;24.90;99.90
20380;DHT22;10349;48.666;8.948;2023-07-16T12:58:47;24.90;99.90
20380;DHT22;10349;48.666;8.948;2023-07-16T13:01:13;24.80;99.90
20380;DHT22;10349;48.666;8.948;2023-07-16T13:03:39;24.80;99.90
20380;DHT22;10349;48.666;8.948;2023-07-16T13:06:06;24.80;99.90
20380;DHT22;10349;48.666;8.948;2023-07-16T13:08:32;24.90;99.90
20380;DHT22;10349;48.666;8.948;2023-07-16T13:10:57;25.10;99.90
20380;DHT22;10349;48.666;8.948;2023-07-16T13:13:23;25.20;99.90
20380;DHT22;10349;48.666;8.948;2023-07-16T13:15:49;25.10;99.90
20380;DHT22;10349;48.666;8.948;2023-07-16T13:18:14;25.20;99.90
20380;DHT22;10349;48.666;8.948;2023-07-16T13:20:40;25.40;99.90
20380;DHT22;10349;48.666;8.948;2023-07-16T13:23:06;25.30;99.90
20380;DHT22;10349;48.666;8.948;2023-07-16T13:25:35;25.30;99.90
20380;DHT22;10349;48.666;8.948;2023-07-16T13:28:02;25.30;99.90
20380;DHT22;10349;48.666;8.948;2023-07-16T13:30:28;25.30;99.90
20380;DHT22;10349;48.666;8.948;2023-07-16T13:32:54;25.40;99.90
20380;DHT22;10349;48.666;8.948;2023-07-16T13:35:22;25.40;99.90
20380;DHT22;10349;48.666;8.948;2023-07-16T13:37:48;25.50;99.90
20380;DHT22;10349;48.666;8.948;2023-07-16T13:40:13;25.50;99.90
20380;DHT22;10349;48.666;8.948;2023-07-16T13:42:39;25.60;99.90
20380;DHT22;10349;48.666;8.948;2023-07-16T13:45:05;25.70;99.90
20380;DHT22;10349;48.666;8.948;2023-07-16T13:47:31;25.70;99.90
20380;DHT22;10349;48.666;8.948;2023-07-16T13:49:57;25.50;99.90
20380;DHT22;10349;48.666;8.948;2023-07-16T13:52:23;25.40;99.90
20380;DHT22;10349;48.666;8.948;2023-07-16T13:54:49;25.40;99.90
20380;DHT22;10349;48.666;8.948;2023-07-16T13:57:14;25.40;99.90
20380;DHT22;10349;48.666;8.948;2023-07-16T13:59:40;25.50;99.90
20380;DHT22;10349;48.666;8.948;2023-07-16T14:02:06;25.40;99.90
20380;DHT22;10349;48.666;8.948;2023-07-16T14:04:32;25.30;99.90
20380;DHT22;10349;48.666;8.948;2023-07-16T14:06:59;25.20;99.90
20380;DHT22;10349;48.666;8.948;2023-07-16T14:09:24;25.00;99.90
20380;DHT22;10349;48.666;8.948;2023-07-16T14:11:50;24.90;99.90
20380;DHT22;10349;48.666;8.948;2023-07-16T14:14:16;25.00;99.90
20380;DHT22;10349;48.666;8.948;2023-07-16T14:16:42;25.10;99.90
20380;DHT22;10349;48.666;8.948;2023-07-16T14:19:09;25.10;99.90
20380;DHT22;10349;48.666;8.948;2023-07-16T14:21:34;25.10;99.90
20380;DHT22;10349;48.666;8.948;2023-07-16T14:24:00;25.10;99.90
20380;DHT22;10349;48.666;8.948;2023-07-16T14:26:26;25.10;99.90
20380;DHT22;10349;48.666;8.948;2023-07-16T14:28:51;25.00;99.90
20380;DHT22;10349;48.666;8.948;2023-07-16T14:31:17;25.00;99.90
20380;DHT22;10349;48.666;8.948;2023-07-16T14:33:43;25.10;99.90
20380;DHT22;10349;48.666;8.948;2023-07-16T14:36:09;25.10;99.90
20380;DHT22;10349;48.666;8.948;2023-07-16T14:38:35;25.10;99.90
20380;DHT22;10349;48.666;8.948;2023-07-16T14:41:01;25.30;99.90
20380;DHT22;10349;48.666;8.948;2023-07-16T14:43:27;25.40;99.90
20380;DHT22;10349;48.666;8.948;2023-07-16T14:45:52;25.20;99.90
20380;DHT22;10349;48.666;8.948;2023-07-16T14:48:18;25.00;99.90
20380;DHT22;10349;48.666;8.948;2023-07-16T14:50:44;25.00;99.90
20380;DHT22;10349;48.666;8.948;2023-07-16T14:53:09;24.90;99.90
20380;DHT22;10349;48.666;8.948;2023-07-16T14:55:35;24.90;99.90
20380;DHT22;10349;48.666;8.948;2023-07-16T14:58:01;25.10;99.90
20380;DHT22;10349;48.666;8.948;2023-07-16T15:00:27;24.90;99.90
20380;DHT22;10349;48.666;8.948;2023-07-16T15:02:53;24.90;99.90
20380;DHT22;10349;48.666;8.948;2023-07-16T15:05:19;25.00;99.90
20380;DHT22;10349;48.666;8.948;2023-07-16T15:07:45;25.20;99.90
20380;DHT22;10349;48.666;8.948;2023-07-16T15:10:10;25.20;99.90
20380;DHT22;10349;48.666;8.948;2023-07-16T15:12:36;25.20;99.90
20380;DHT22;10349;48.666;8.948;2023-07-16T15:15:02;25.30;99.90
20380;DHT22;10349;48.666;8.948;2023-07-16T15:17:29;25.20;99.90
20380;DHT22;10349;48.666;8.948;2023-07-16T15:19:54;25.20;99.90
20380;DHT22;10349;48.666;8.948;2023-07-16T15:22:20;25.30;99.90
20380;DHT22;10349;48.666;8.948;2023-07-16T15:24:49;25.30;99.90
20380;DHT22;10349;48.666;8.948;2023-07-16T15:27:16;25.40;99.90
20380;DHT22;10349;48.666;8.948;2023-07-16T15:29:41;25.40;99.90
20380;DHT22;10349;48.666;8.948;2023-07-16T15:32:07;25.40;99.90